createdAt,value
2022-12-01T00:01:40.385Z,21.70
2022-12-01T00:04:09.065Z,26.00
2022-12-01T00:06:37.751Z,21.50
2022-12-01T00:09:24.836Z,21.40
2022-12-01T00:11:53.447Z,24.00
2022-12-01T00:14:22.076Z,20.00
2022-12-01T00:16:50.691Z,23.70
2022-12-01T00:19:19.423Z,22.30
2022-12-01T00:21:47.993Z,20.70
2022-12-01T00:24:16.667Z,21.20
2022-12-01T00:26:45.349Z,22.20
2022-12-01T00:29:13.968Z,24.20
2022-12-01T00:31:42.825Z,18.20
2022-12-01T00:34:24.810Z,24.20
2022-12-01T00:36:53.435Z,20.70
2022-12-01T00:39:22.532Z,22.90
2022-12-01T00:41:51.097Z,20.80
2022-12-01T00:44:19.804Z,24.30
2022-12-01T00:46:48.340Z,21.50
2022-12-01T00:49:17.217Z,23.80
2022-12-01T00:51:45.915Z,22.10
2022-12-01T00:54:14.533Z,25.20
2022-12-01T00:56:43.408Z,25.40
2022-12-01T00:59:12.106Z,22.40
2022-12-01T01:01:41.181Z,23.70
2022-12-01T01:04:09.952Z,22.90
2022-12-01T01:06:38.613Z,25.70
2022-12-01T01:09:07.227Z,22.90
2022-12-01T01:11:36.383Z,22.40
2022-12-01T01:14:05.982Z,22.20
2022-12-01T01:16:35.322Z,27.60
2022-12-01T01:19:04.092Z,21.90
2022-12-01T01:21:32.886Z,23.30
2022-12-01T01:24:01.730Z,22.60
2022-12-01T01:26:32.150Z,24.20
2022-12-01T01:29:04.139Z,26.90
2022-12-01T01:31:33.005Z,22.60
2022-12-01T01:34:01.935Z,26.90
2022-12-01T01:36:30.949Z,23.90
2022-12-01T01:39:00.963Z,26.30
2022-12-01T01:41:30.061Z,23.70
2022-12-01T01:44:03.456Z,22.90
2022-12-01T01:46:35.039Z,25.90
2022-12-01T01:49:11.595Z,24.60
2022-12-01T01:51:50.646Z,23.20
2022-12-01T01:54:26.840Z,26.40
2022-12-01T01:56:57.716Z,25.60
2022-12-01T01:59:37.681Z,26.50
2022-12-01T02:02:09.318Z,23.80
2022-12-01T02:04:47.842Z,26.50
2022-12-01T02:07:19.626Z,25.80
2022-12-01T02:09:48.544Z,23.70
2022-12-01T02:12:56.931Z,23.00
2022-12-01T02:15:47.087Z,24.50
2022-12-01T02:18:27.118Z,25.60
2022-12-01T02:21:33.928Z,26.40
2022-12-01T02:25:15.136Z,24.40
2022-12-01T02:28:06.567Z,25.60
2022-12-01T02:31:15.240Z,25.30
2022-12-01T02:33:58.927Z,24.50
2022-12-01T02:36:52.919Z,23.50
2022-12-01T02:39:35.133Z,22.90
2022-12-01T02:42:37.261Z,22.90
2022-12-01T02:45:14.252Z,26.60
2022-12-01T02:47:45.108Z,32.50
2022-12-01T02:50:13.993Z,28.80
2022-12-01T02:52:43.271Z,23.20
2022-12-01T02:55:13.711Z,23.50
2022-12-01T02:57:42.363Z,30.90
2022-12-01T03:00:13.764Z,25.20
2022-12-01T03:03:06.527Z,23.50
2022-12-01T03:05:55.323Z,25.10
2022-12-01T03:08:49.694Z,28.60
2022-12-01T03:11:27.407Z,25.00
2022-12-01T03:14:29.447Z,27.20
2022-12-01T03:17:05.043Z,25.30
2022-12-01T03:19:46.206Z,24.80
2022-12-01T03:22:32.138Z,25.60
2022-12-01T03:25:03.982Z,25.20
2022-12-01T03:27:37.933Z,28.20
2022-12-01T03:30:10.992Z,28.70
2022-12-01T03:33:04.822Z,29.10
2022-12-01T03:35:42.101Z,25.10
2022-12-01T03:38:22.040Z,28.50
2022-12-01T03:40:56.998Z,29.20
2022-12-01T03:43:33.261Z,28.90
2022-12-01T03:46:20.451Z,29.80
2022-12-01T03:48:50.893Z,32.90
2022-12-01T03:51:47.192Z,29.10
2022-12-01T03:54:45.461Z,27.50
2022-12-01T03:57:24.035Z,30.10
2022-12-01T03:59:53.976Z,28.00
2022-12-01T04:02:25.744Z,27.60
2022-12-01T04:04:54.550Z,27.60
2022-12-01T04:07:23.652Z,26.70
2022-12-01T04:09:52.379Z,28.60
2022-12-01T04:12:29.898Z,25.20
2022-12-01T04:15:04.205Z,26.30
2022-12-01T04:17:32.776Z,25.70
2022-12-01T04:20:01.560Z,25.20
2022-12-01T04:22:30.494Z,26.60
2022-12-01T04:24:59.212Z,27.10
2022-12-01T04:27:29.416Z,27.80
2022-12-01T04:29:58.064Z,29.00
2022-12-01T04:32:26.862Z,26.00
2022-12-01T04:34:55.498Z,30.20
2022-12-01T04:37:24.143Z,28.40
2022-12-01T04:39:52.870Z,26.30
2022-12-01T04:42:21.513Z,25.20
2022-12-01T04:44:50.158Z,31.00
2022-12-01T04:47:18.820Z,32.70
2022-12-01T04:49:47.864Z,28.60
2022-12-01T04:52:16.663Z,32.00
2022-12-01T04:54:45.327Z,26.60
2022-12-01T04:57:14.063Z,28.00
2022-12-01T04:59:42.634Z,29.80
2022-12-01T05:02:11.380Z,31.60
2022-12-01T05:04:41.803Z,29.70
2022-12-01T05:07:10.543Z,29.40
2022-12-01T05:09:39.362Z,30.40
2022-12-01T05:12:08.085Z,29.60
2022-12-01T05:14:36.701Z,27.70
2022-12-01T05:17:05.313Z,27.00
2022-12-01T05:20:26.616Z,30.40
2022-12-01T05:23:07.128Z,30.40
2022-12-01T05:25:37.751Z,32.10
2022-12-01T05:28:06.885Z,33.70
2022-12-01T05:30:35.484Z,29.30
2022-12-01T05:33:04.293Z,28.20
2022-12-01T05:35:36.053Z,28.30
2022-12-01T05:38:08.076Z,31.40
2022-12-01T05:40:38.141Z,29.00
2022-12-01T05:43:07.566Z,30.60
2022-12-01T05:45:36.629Z,29.00
2022-12-01T05:48:21.708Z,31.40
2022-12-01T05:50:50.693Z,30.80
2022-12-01T05:53:19.831Z,27.60
2022-12-01T05:55:55.336Z,32.70
2022-12-01T05:58:24.008Z,26.20
2022-12-01T06:00:52.926Z,29.50
2022-12-01T06:03:21.661Z,25.90
2022-12-01T06:05:51.327Z,26.30
2022-12-01T06:08:20.115Z,29.80
2022-12-01T06:10:48.948Z,28.70
2022-12-01T06:13:17.799Z,32.50
2022-12-01T06:15:46.493Z,32.90
2022-12-01T06:18:15.057Z,27.60
2022-12-01T06:20:43.851Z,31.90
2022-12-01T06:23:12.479Z,26.90
2022-12-01T06:25:41.417Z,30.40
2022-12-01T06:28:10.238Z,32.40
2022-12-01T06:30:39.111Z,30.10
2022-12-01T06:33:08.366Z,29.00
2022-12-01T06:35:37.640Z,31.00
2022-12-01T06:38:06.527Z,28.50
2022-12-01T06:40:35.293Z,33.20
2022-12-01T06:43:04.129Z,29.40
2022-12-01T06:45:32.790Z,29.60
2022-12-01T06:48:01.406Z,27.00
2022-12-01T06:50:30.126Z,28.50
2022-12-01T06:52:59.462Z,28.30
2022-12-01T06:55:28.151Z,27.00
2022-12-01T06:58:01.248Z,39.50
2022-12-01T07:02:58.952Z,29.00
2022-12-01T07:05:27.722Z,30.20
2022-12-01T07:07:59.492Z,28.80
2022-12-01T07:10:28.881Z,28.00
2022-12-01T07:12:57.611Z,24.90
2022-12-01T07:15:26.314Z,26.50
2022-12-01T07:17:55.064Z,28.90
2022-12-01T07:20:23.804Z,28.40
2022-12-01T07:22:54.641Z,73.10
2022-12-01T07:25:24.103Z,29.70
2022-12-01T07:27:54.860Z,30.20
2022-12-01T07:30:28.223Z,28.50
2022-12-01T07:32:57.276Z,29.20
2022-12-01T07:35:26.310Z,24.60
2022-12-01T07:37:58.115Z,35.40
2022-12-01T07:40:26.845Z,27.00
2022-12-01T07:42:55.566Z,24.20
2022-12-01T07:45:24.907Z,27.30
2022-12-01T07:47:54.479Z,31.60
2022-12-01T07:50:23.300Z,26.10
2022-12-01T07:52:52.263Z,34.30
2022-12-01T07:55:21.040Z,27.40
2022-12-01T07:57:49.910Z,28.30
2022-12-01T08:00:19.030Z,25.00
2022-12-01T08:02:50.731Z,51.80
2022-12-01T08:05:19.517Z,34.60
2022-12-01T08:07:48.412Z,49.10
2022-12-01T08:10:17.260Z,116.20
2022-12-01T08:12:48.979Z,27.60
2022-12-01T08:15:19.244Z,30.10
2022-12-01T08:17:47.963Z,26.40
2022-12-01T08:20:22.345Z,25.70
2022-12-01T08:22:52.668Z,25.30
2022-12-01T08:25:21.316Z,28.10
2022-12-01T08:27:49.997Z,25.70
2022-12-01T08:30:18.876Z,27.30
2022-12-01T08:32:47.787Z,33.60
2022-12-01T08:35:16.635Z,38.10
2022-12-01T08:37:45.728Z,37.80
2022-12-01T08:40:14.760Z,40.00
2022-12-01T08:43:49.486Z,22.40
2022-12-01T08:46:15.243Z,22.70
2022-12-01T08:48:44.417Z,27.40
2022-12-01T08:51:16.704Z,26.10
2022-12-01T08:53:48.921Z,56.30
2022-12-01T08:56:20.965Z,26.80
2022-12-01T08:58:51.272Z,35.80
2022-12-01T09:01:20.972Z,27.80
2022-12-01T09:04:05.435Z,38.80
2022-12-01T09:06:46.182Z,23.70
2022-12-01T09:09:20.297Z,28.60
2022-12-01T09:11:50.154Z,31.60
2022-12-01T09:14:20.156Z,26.70
2022-12-01T09:16:50.529Z,29.50
2022-12-01T09:19:24.682Z,27.90
2022-12-01T09:21:53.841Z,27.80
2022-12-01T09:24:23.166Z,33.90
2022-12-01T09:26:56.487Z,28.00
2022-12-01T09:29:25.948Z,28.90
2022-12-01T09:31:58.956Z,31.20
2022-12-01T09:34:29.209Z,32.60
2022-12-01T09:36:58.723Z,31.50
2022-12-01T09:39:28.129Z,28.60
2022-12-01T09:42:13.123Z,25.70
2022-12-01T09:44:53.737Z,27.60
2022-12-01T09:47:37.309Z,29.40
2022-12-01T09:53:20.315Z,25.20
2022-12-01T09:55:50.510Z,28.70
2022-12-01T09:58:25.831Z,34.40
2022-12-01T10:00:55.215Z,27.60
2022-12-01T10:03:46.518Z,30.10
2022-12-01T10:06:29.192Z,30.70
2022-12-01T10:09:34.997Z,27.90
2022-12-01T10:12:27.986Z,28.60
2022-12-01T10:15:18.551Z,29.50
2022-12-01T10:18:32.453Z,28.80
2022-12-01T10:21:31.100Z,27.80
2022-12-01T10:24:31.391Z,26.80
2022-12-01T10:27:26.359Z,30.80
2022-12-01T10:30:18.816Z,33.20
2022-12-01T10:32:55.378Z,28.80
2022-12-01T10:35:29.370Z,25.90
2022-12-01T10:38:02.758Z,30.80
2022-12-01T10:41:04.689Z,32.40
2022-12-01T10:43:41.461Z,25.00
2022-12-01T10:46:43.858Z,33.10
2022-12-01T10:49:15.536Z,33.00
2022-12-01T10:51:53.181Z,29.80
2022-12-01T10:54:33.665Z,32.10
2022-12-01T10:57:04.079Z,33.70
2022-12-01T10:59:38.531Z,28.50
2022-12-01T11:02:20.986Z,29.30
2022-12-01T11:04:58.014Z,27.30
2022-12-01T11:07:44.524Z,26.60
2022-12-01T11:10:24.459Z,29.50
2022-12-01T11:13:35.753Z,27.80
2022-12-01T11:16:07.342Z,28.40
2022-12-01T11:18:38.960Z,28.30
2022-12-01T11:21:12.955Z,27.80
2022-12-01T11:23:53.772Z,25.30
2022-12-01T11:26:25.364Z,31.00
2022-12-01T11:29:33.308Z,28.60
2022-12-01T11:32:25.999Z,30.60
2022-12-01T11:35:03.239Z,29.90
2022-12-01T11:37:39.612Z,27.30
2022-12-01T11:40:37.230Z,28.90
2022-12-01T11:43:08.338Z,28.70
2022-12-01T11:45:45.820Z,27.30
2022-12-01T11:48:17.980Z,36.60
2022-12-01T11:51:11.472Z,33.10
2022-12-01T11:53:45.543Z,34.10
2022-12-01T11:56:28.878Z,33.00
2022-12-01T12:02:21.152Z,32.20
2022-12-01T12:05:30.069Z,33.40
2022-12-01T12:08:13.690Z,35.80
2022-12-01T12:11:21.498Z,27.40
2022-12-01T12:13:55.930Z,30.20
2022-12-01T12:17:04.820Z,29.10
2022-12-01T12:22:43.280Z,27.50
2022-12-01T12:25:21.080Z,25.20
2022-12-01T12:28:07.092Z,21.60
2022-12-01T12:30:49.565Z,21.00
2022-12-01T12:33:42.309Z,22.10
2022-12-01T12:36:55.993Z,23.60
2022-12-01T12:39:54.104Z,28.10
2022-12-01T12:43:09.239Z,27.80
2022-12-01T12:46:36.659Z,29.40
2022-12-01T12:49:27.283Z,21.20
2022-12-01T12:52:08.965Z,22.90
2022-12-01T12:55:04.190Z,32.10
2022-12-01T12:57:39.448Z,24.20
2022-12-01T13:00:21.228Z,20.40
2022-12-01T13:03:15.310Z,25.30
2022-12-01T13:06:02.779Z,24.10
2022-12-01T13:08:45.622Z,20.70
2022-12-01T13:11:27.394Z,29.10
2022-12-01T13:14:33.321Z,29.70
2022-12-01T13:17:31.239Z,29.70
2022-12-01T13:19:59.874Z,28.50
2022-12-01T13:22:35.334Z,29.20
2022-12-01T13:25:05.327Z,35.20
2022-12-01T13:27:42.888Z,32.00
2022-12-01T13:30:24.912Z,33.20
2022-12-01T13:33:05.797Z,28.50
2022-12-01T13:35:38.712Z,29.50
2022-12-01T13:38:37.746Z,29.20
2022-12-01T13:41:18.454Z,29.60
2022-12-01T13:44:39.705Z,35.20
2022-12-01T13:47:11.422Z,29.40
2022-12-01T13:49:46.635Z,32.70
2022-12-01T13:52:31.584Z,28.00
2022-12-01T13:55:12.164Z,29.10
2022-12-01T13:58:13.445Z,23.90
2022-12-01T14:00:43.258Z,47.60
2022-12-01T14:03:19.473Z,38.70
2022-12-01T14:05:58.923Z,47.60
2022-12-01T14:08:45.271Z,33.30
2022-12-01T14:11:25.083Z,26.90
2022-12-01T14:14:00.977Z,41.20
2022-12-01T14:16:57.243Z,50.00
2022-12-01T14:19:45.322Z,31.90
2022-12-01T14:22:40.804Z,27.60
2022-12-01T14:25:21.681Z,35.90
2022-12-01T14:27:54.564Z,33.80
2022-12-01T14:30:45.943Z,32.00
2022-12-01T14:33:39.523Z,29.70
2022-12-01T14:36:37.764Z,32.20
2022-12-01T14:39:23.711Z,39.10
2022-12-01T14:42:00.908Z,36.80
2022-12-01T14:44:36.028Z,42.50
2022-12-01T14:47:13.571Z,29.10
2022-12-01T14:50:15.317Z,38.00
2022-12-01T14:52:51.126Z,38.50
2022-12-01T14:55:39.220Z,41.50
2022-12-01T14:58:18.627Z,46.70
2022-12-01T15:01:14.468Z,46.90
2022-12-01T15:03:49.141Z,49.40
2022-12-01T15:06:20.821Z,50.70
2022-12-01T15:14:47.223Z,47.80
2022-12-01T15:17:37.286Z,45.70
2022-12-01T15:20:37.143Z,100.60
2022-12-01T15:23:15.308Z,63.60
2022-12-01T15:25:46.780Z,55.90
2022-12-01T15:28:18.206Z,49.80
2022-12-01T15:30:55.231Z,61.30
2022-12-01T15:34:10.656Z,45.90
2022-12-01T15:36:49.038Z,59.10
2022-12-01T15:43:38.464Z,52.50
2022-12-01T15:46:31.629Z,46.20
2022-12-01T15:49:20.177Z,45.50
2022-12-01T15:52:16.630Z,52.20
2022-12-01T15:59:04.146Z,49.20
2022-12-01T16:12:28.585Z,47.60
2022-12-01T16:15:01.253Z,47.30
2022-12-01T16:21:17.955Z,51.50
2022-12-01T16:23:48.389Z,50.40
2022-12-01T16:26:19.915Z,51.30
2022-12-01T16:28:50.703Z,45.40
2022-12-01T16:31:20.428Z,46.90
2022-12-01T16:34:13.788Z,48.30
2022-12-01T16:36:48.605Z,47.50
2022-12-01T16:39:18.126Z,45.90
2022-12-01T16:41:48.282Z,47.40
2022-12-01T16:44:32.895Z,50.50
2022-12-01T16:47:02.136Z,56.80
2022-12-01T16:50:04.276Z,48.10
2022-12-01T16:52:48.296Z,47.70
2022-12-01T16:55:43.781Z,44.50
2022-12-01T16:58:12.921Z,47.30
2022-12-01T17:00:42.090Z,48.80
2022-12-01T17:04:49.964Z,46.90
2022-12-01T17:07:18.681Z,53.30
2022-12-01T17:10:12.028Z,51.60
2022-12-01T17:13:24.172Z,48.20
2022-12-01T17:15:55.532Z,52.60
2022-12-01T17:18:25.218Z,47.70
2022-12-01T17:21:09.947Z,46.70
2022-12-01T17:23:47.274Z,43.90
2022-12-01T17:26:19.179Z,47.10
2022-12-01T17:28:48.513Z,47.40
2022-12-01T17:31:17.314Z,44.60
2022-12-01T17:33:46.652Z,50.60
2022-12-01T17:36:16.140Z,49.30
2022-12-01T17:38:48.200Z,48.90
2022-12-01T17:41:25.749Z,44.00
2022-12-01T17:43:54.613Z,48.00
2022-12-01T17:46:23.574Z,42.50
2022-12-01T17:48:52.316Z,40.00
2022-12-01T17:51:21.085Z,45.30
2022-12-01T17:53:49.824Z,42.60
2022-12-01T17:56:18.720Z,44.00
2022-12-01T17:58:49.614Z,47.30
2022-12-01T18:01:24.124Z,43.90
2022-12-01T18:03:58.609Z,48.80
2022-12-01T18:06:27.953Z,44.20
2022-12-01T18:08:58.510Z,44.50
2022-12-01T18:11:28.066Z,49.30
2022-12-01T18:13:56.747Z,39.40
2022-12-01T18:16:30.019Z,48.00
2022-12-01T18:19:02.338Z,46.40
2022-12-01T18:21:31.043Z,44.90
2022-12-01T18:24:04.154Z,48.70
2022-12-01T18:29:11.599Z,43.50
2022-12-01T18:31:42.373Z,41.10
2022-12-01T18:34:12.625Z,41.90
2022-12-01T18:36:41.995Z,42.70
2022-12-01T18:39:12.254Z,40.10
2022-12-01T18:41:41.138Z,46.10
2022-12-01T18:44:10.102Z,38.70
2022-12-01T18:46:39.598Z,42.30
2022-12-01T18:49:09.421Z,42.40
2022-12-01T18:51:39.449Z,44.10
2022-12-01T18:54:12.619Z,41.30
2022-12-01T18:59:12.913Z,44.50
2022-12-01T19:01:44.015Z,40.20
2022-12-01T19:04:15.925Z,40.80
2022-12-01T19:06:46.055Z,40.50
2022-12-01T19:09:16.318Z,39.00
2022-12-01T19:11:45.594Z,42.30
2022-12-01T19:14:20.015Z,38.00
2022-12-01T19:16:49.336Z,41.90
2022-12-01T19:19:18.208Z,39.40
2022-12-01T19:21:47.157Z,35.80
2022-12-01T19:24:16.277Z,41.30
2022-12-01T19:26:45.039Z,40.70
2022-12-01T19:29:13.876Z,35.00
2022-12-01T19:31:42.634Z,43.30
2022-12-01T19:34:11.389Z,37.90
2022-12-01T19:36:40.628Z,44.00
2022-12-01T19:39:09.417Z,45.10
2022-12-01T19:41:38.856Z,37.70
2022-12-01T19:44:07.799Z,40.30
2022-12-01T19:46:36.498Z,36.40
2022-12-01T19:49:07.249Z,41.60
2022-12-01T19:51:39.499Z,42.50
2022-12-01T19:54:15.723Z,37.00
2022-12-01T19:56:45.753Z,42.80
2022-12-01T19:59:15.102Z,39.90
2022-12-01T20:01:43.982Z,38.30
2022-12-01T20:04:12.773Z,36.60
2022-12-01T20:06:41.520Z,33.80
2022-12-01T20:09:10.774Z,35.80
2022-12-01T20:11:39.424Z,35.00
2022-12-01T20:14:08.376Z,37.50
2022-12-01T20:16:39.587Z,35.30
2022-12-01T20:19:08.703Z,36.60
2022-12-01T20:21:42.684Z,40.30
2022-12-01T20:24:15.622Z,36.80
2022-12-01T20:26:53.137Z,36.30
2022-12-01T20:29:28.822Z,33.20
2022-12-01T20:32:00.332Z,31.70
2022-12-01T20:34:35.669Z,33.80
2022-12-01T20:37:04.939Z,38.30
2022-12-01T20:39:36.041Z,39.00
2022-12-01T20:42:06.265Z,34.90
2022-12-01T20:44:35.775Z,34.70
2022-12-01T20:47:04.886Z,37.20
2022-12-01T20:49:33.573Z,38.10
2022-12-01T20:52:02.391Z,41.80
2022-12-01T20:54:31.636Z,39.40
2022-12-01T20:57:00.351Z,36.20
2022-12-01T20:59:29.715Z,34.00
2022-12-01T21:01:58.442Z,33.30
2022-12-01T21:04:27.169Z,35.90
2022-12-01T21:06:58.180Z,37.20
2022-12-01T21:09:29.763Z,37.90
2022-12-01T21:12:18.176Z,25.70
2022-12-01T21:15:13.637Z,31.90
2022-12-01T21:17:53.320Z,37.10
2022-12-01T21:20:30.135Z,35.60
2022-12-01T21:23:28.915Z,37.90
2022-12-01T21:25:57.922Z,39.00
2022-12-01T21:28:27.484Z,38.60
2022-12-01T21:31:10.808Z,34.60
2022-12-01T21:36:20.868Z,35.30
2022-12-01T21:39:05.736Z,33.60
2022-12-01T21:41:34.412Z,40.30
2022-12-01T21:44:13.855Z,35.00
2022-12-01T21:46:42.930Z,32.50
2022-12-01T21:49:25.449Z,31.90
2022-12-01T21:51:54.253Z,34.30
2022-12-01T21:54:23.482Z,36.10
2022-12-01T21:56:58.890Z,35.50
2022-12-01T21:59:28.311Z,38.10
2022-12-01T22:01:58.114Z,37.50
2022-12-01T22:04:31.638Z,34.00
2022-12-01T22:07:00.277Z,36.30
2022-12-01T22:09:36.505Z,36.00
2022-12-01T22:12:29.277Z,37.20
2022-12-01T22:15:02.280Z,40.60
2022-12-01T22:17:30.882Z,33.60
2022-12-01T22:20:17.979Z,36.00
2022-12-01T22:22:46.631Z,39.10
2022-12-01T22:25:26.731Z,33.90
2022-12-01T22:27:56.337Z,35.40
2022-12-01T22:30:25.079Z,34.90
2022-12-01T22:33:05.511Z,34.50
2022-12-01T22:35:43.631Z,37.30
2022-12-01T22:38:38.034Z,32.50
2022-12-01T22:41:14.844Z,37.00
2022-12-01T22:44:01.076Z,36.00
2022-12-01T22:46:33.497Z,28.70
2022-12-01T22:49:23.119Z,32.80
2022-12-01T22:51:53.539Z,31.60
2022-12-01T22:54:30.715Z,33.00
2022-12-01T22:57:24.533Z,37.90
2022-12-01T22:59:54.568Z,32.90
2022-12-01T23:02:35.323Z,32.10
2022-12-01T23:05:29.716Z,40.30
2022-12-01T23:07:58.886Z,37.50
2022-12-01T23:10:35.182Z,38.30
2022-12-01T23:13:24.745Z,32.20
2022-12-01T23:15:54.365Z,34.40
2022-12-01T23:18:32.230Z,39.60
2022-12-01T23:21:02.631Z,35.10
2022-12-01T23:23:35.233Z,34.10
2022-12-01T23:26:08.558Z,31.60
2022-12-01T23:28:39.501Z,35.60
2022-12-01T23:31:09.716Z,41.50
2022-12-01T23:33:38.781Z,36.50
2022-12-01T23:36:19.170Z,32.40
2022-12-01T23:38:52.665Z,37.10
2022-12-01T23:41:42.475Z,31.80
2022-12-01T23:44:39.997Z,36.00
2022-12-01T23:47:20.354Z,37.30
2022-12-01T23:49:59.392Z,38.70
2022-12-01T23:52:37.301Z,32.40
2022-12-01T23:55:22.650Z,33.10
2022-12-01T23:57:52.349Z,38.00
